createdAt,value
2022-07-28T00:00:39.013Z,0.00
2022-07-28T00:01:39.000Z,0.00
2022-07-28T00:02:38.947Z,0.00
2022-07-28T00:03:38.840Z,0.00
2022-07-28T00:04:38.777Z,0.00
2022-07-28T00:05:38.741Z,0.00
2022-07-28T00:06:38.689Z,0.00
2022-07-28T00:07:38.624Z,0.00
2022-07-28T00:08:38.576Z,0.00
2022-07-28T00:09:38.527Z,0.00
2022-07-28T00:10:38.471Z,0.00
2022-07-28T00:11:50.259Z,0.00
2022-07-28T00:12:38.392Z,0.00
2022-07-28T00:13:38.318Z,0.00
2022-07-28T00:14:38.263Z,0.00
2022-07-28T00:15:38.315Z,0.00
2022-07-28T00:16:38.201Z,0.00
2022-07-28T00:17:38.124Z,0.00
2022-07-28T00:18:38.055Z,0.00
2022-07-28T00:19:38.020Z,0.00
2022-07-28T00:20:37.955Z,0.00
2022-07-28T00:21:37.902Z,0.00
2022-07-28T00:22:37.853Z,0.00
2022-07-28T00:23:39.395Z,0.00
2022-07-28T00:24:37.751Z,0.00
2022-07-28T00:25:37.700Z,0.00
2022-07-28T00:26:37.643Z,0.00
2022-07-28T00:27:37.648Z,0.00
2022-07-28T00:28:37.558Z,0.00
2022-07-28T00:29:50.495Z,0.00
2022-07-28T00:30:37.440Z,0.00
2022-07-28T00:31:37.438Z,0.00
2022-07-28T00:32:37.337Z,0.00
2022-07-28T00:33:37.299Z,0.00
2022-07-28T00:34:37.247Z,0.00
2022-07-28T00:35:37.197Z,0.00
2022-07-28T00:36:37.130Z,0.00
2022-07-28T00:37:39.717Z,0.00
2022-07-28T00:38:37.041Z,0.00
2022-07-28T00:39:36.976Z,0.00
2022-07-28T00:40:36.922Z,0.00
2022-07-28T00:41:36.874Z,0.00
2022-07-28T00:42:36.824Z,0.00
2022-07-28T00:43:36.786Z,0.00
2022-07-28T00:44:36.723Z,0.00
2022-07-28T00:45:36.667Z,0.00
2022-07-28T00:46:36.738Z,0.00
2022-07-28T00:47:36.571Z,0.00
2022-07-28T00:48:36.557Z,0.00
2022-07-28T00:49:36.481Z,0.00
2022-07-28T00:50:36.408Z,0.00
2022-07-28T00:51:36.374Z,0.00
2022-07-28T00:52:36.309Z,0.00
2022-07-28T00:53:36.258Z,0.00
2022-07-28T00:54:36.200Z,0.00
2022-07-28T00:56:06.408Z,0.00
2022-07-28T00:56:36.114Z,0.00
2022-07-28T00:57:36.065Z,0.00
2022-07-28T00:58:36.005Z,0.00
2022-07-28T00:59:35.964Z,0.00
2022-07-28T01:00:35.895Z,0.00
2022-07-28T01:01:35.879Z,0.00
2022-07-28T01:02:35.892Z,0.00
2022-07-28T01:03:35.739Z,0.00
2022-07-28T01:04:35.704Z,0.00
2022-07-28T01:05:43.795Z,0.00
2022-07-28T01:06:35.588Z,0.00
2022-07-28T01:07:35.531Z,0.00
2022-07-28T01:08:35.480Z,0.00
2022-07-28T01:09:35.441Z,0.00
2022-07-28T01:10:35.378Z,0.00
2022-07-28T01:11:42.554Z,0.00
2022-07-28T01:12:35.275Z,0.00
2022-07-28T01:13:35.221Z,0.00
2022-07-28T01:14:35.196Z,0.00
2022-07-28T01:15:35.125Z,0.00
2022-07-28T01:16:35.131Z,0.00
2022-07-28T01:17:35.025Z,0.00
2022-07-28T01:18:34.964Z,0.00
2022-07-28T01:19:34.928Z,0.00
2022-07-28T01:20:34.874Z,0.00
2022-07-28T01:21:34.810Z,0.00
2022-07-28T01:22:34.760Z,0.00
2022-07-28T01:23:34.705Z,0.00
2022-07-28T01:24:34.652Z,0.00
2022-07-28T01:25:34.617Z,0.00
2022-07-28T01:26:34.565Z,0.00
2022-07-28T01:27:34.498Z,0.00
2022-07-28T01:28:34.451Z,0.00
2022-07-28T01:29:34.395Z,0.00
2022-07-28T01:30:34.359Z,0.00
2022-07-28T01:31:34.420Z,0.00
2022-07-28T01:32:34.258Z,0.00
2022-07-28T01:33:34.186Z,0.00
2022-07-28T01:34:34.142Z,0.00
2022-07-28T01:35:34.086Z,0.00
2022-07-28T01:36:34.057Z,0.00
2022-07-28T01:37:34.001Z,0.00
2022-07-28T01:38:33.932Z,0.00
2022-07-28T01:39:33.878Z,0.00
2022-07-28T01:40:33.826Z,0.00
2022-07-28T01:41:33.776Z,0.00
2022-07-28T01:42:33.748Z,0.00
2022-07-28T01:43:33.673Z,0.00
2022-07-28T01:44:33.625Z,0.00
2022-07-28T01:45:33.574Z,0.00
2022-07-28T01:46:33.578Z,0.00
2022-07-28T01:47:33.468Z,0.00
2022-07-28T01:48:33.470Z,0.00
2022-07-28T01:49:33.379Z,0.00
2022-07-28T01:50:33.308Z,0.00
2022-07-28T01:51:33.266Z,0.00
2022-07-28T01:52:33.206Z,0.00
2022-07-28T01:53:37.609Z,0.00
2022-07-28T01:54:33.107Z,0.00
2022-07-28T01:55:33.051Z,0.00
2022-07-28T01:56:33.023Z,0.00
2022-07-28T01:57:32.949Z,0.00
2022-07-28T01:58:32.908Z,0.00
2022-07-28T01:59:32.844Z,0.00
2022-07-28T02:00:32.790Z,0.00
2022-07-28T02:01:32.794Z,0.00
2022-07-28T02:02:32.713Z,0.00
2022-07-28T02:03:32.680Z,0.00
2022-07-28T02:04:32.635Z,0.00
2022-07-28T02:05:32.589Z,0.00
2022-07-28T02:06:32.478Z,0.00
2022-07-28T02:07:32.429Z,0.00
2022-07-28T02:08:32.390Z,0.00
2022-07-28T02:09:32.325Z,0.00
2022-07-28T02:10:32.277Z,0.00
2022-07-28T02:11:32.243Z,0.00
2022-07-28T02:12:32.180Z,0.00
2022-07-28T02:13:32.125Z,0.00
2022-07-28T02:14:32.069Z,0.00
2022-07-28T02:15:32.104Z,0.00
2022-07-28T02:16:31.981Z,0.00
2022-07-28T02:17:31.911Z,0.00
2022-07-28T02:18:31.885Z,0.00
2022-07-28T02:19:31.819Z,0.00
2022-07-28T02:20:31.757Z,0.00
2022-07-28T02:21:31.721Z,0.00
2022-07-28T02:22:31.651Z,0.00
2022-07-28T02:23:31.600Z,0.00
2022-07-28T02:24:31.546Z,0.00
2022-07-28T02:25:31.507Z,0.00
2022-07-28T02:26:31.484Z,0.00
2022-07-28T02:27:31.410Z,0.00
2022-07-28T02:28:31.358Z,0.00
2022-07-28T02:29:50.381Z,0.00
2022-07-28T02:30:31.235Z,0.00
2022-07-28T02:31:31.228Z,0.00
2022-07-28T02:32:31.146Z,0.00
2022-07-28T02:33:59.526Z,0.00
2022-07-28T02:34:31.028Z,0.00
2022-07-28T02:35:32.015Z,0.00
2022-07-28T02:36:31.303Z,0.00
2022-07-28T02:37:30.889Z,0.00
2022-07-28T02:38:30.816Z,0.00
2022-07-28T02:39:30.769Z,0.00
2022-07-28T02:40:30.761Z,0.00
2022-07-28T02:41:30.660Z,0.00
2022-07-28T02:42:30.619Z,0.00
2022-07-28T02:43:45.794Z,0.00
2022-07-28T02:44:30.504Z,0.00
2022-07-28T02:45:30.465Z,0.00
2022-07-28T02:46:30.437Z,0.00
2022-07-28T02:47:30.345Z,0.00
2022-07-28T02:48:30.307Z,0.00
2022-07-28T02:49:30.239Z,0.00
2022-07-28T02:50:30.198Z,0.00
2022-07-28T02:51:30.139Z,0.00
2022-07-28T02:52:30.104Z,0.00
2022-07-28T02:53:30.049Z,0.00
2022-07-28T02:54:29.979Z,0.00
2022-07-28T02:55:29.931Z,0.00
2022-07-28T02:56:29.879Z,0.00
2022-07-28T02:57:29.843Z,0.00
2022-07-28T02:58:29.769Z,0.00
2022-07-28T02:59:29.729Z,0.00
2022-07-28T03:00:29.670Z,0.00
2022-07-28T03:01:29.644Z,0.00
2022-07-28T03:02:29.577Z,0.00
2022-07-28T03:03:29.511Z,0.00
2022-07-28T03:04:29.471Z,0.00
2022-07-28T03:05:29.459Z,0.00
2022-07-28T03:06:29.351Z,0.00
2022-07-28T03:07:29.314Z,0.00
2022-07-28T03:08:29.269Z,0.00
2022-07-28T03:09:29.194Z,0.00
2022-07-28T03:10:33.649Z,0.00
2022-07-28T03:11:29.112Z,0.00
2022-07-28T03:12:29.040Z,0.00
2022-07-28T03:13:28.990Z,4.00
2022-07-28T03:14:28.950Z,4.00
2022-07-28T03:15:28.884Z,0.00
2022-07-28T03:16:28.876Z,0.00
2022-07-28T03:17:28.775Z,4.00
2022-07-28T03:18:28.721Z,4.00
2022-07-28T03:19:28.689Z,4.00
2022-07-28T03:20:28.615Z,4.00
2022-07-28T03:21:28.563Z,4.00
2022-07-28T03:22:28.512Z,4.00
2022-07-28T03:23:28.461Z,4.00
2022-07-28T03:24:28.407Z,4.00
2022-07-28T03:25:28.371Z,8.00
2022-07-28T03:26:28.311Z,8.00
2022-07-28T03:27:28.249Z,8.00
2022-07-28T03:28:28.198Z,8.00
2022-07-28T03:29:28.167Z,12.00
2022-07-28T03:30:28.115Z,16.00
2022-07-28T03:31:28.059Z,12.00
2022-07-28T03:32:27.994Z,16.00
2022-07-28T03:33:27.937Z,16.00
2022-07-28T03:34:27.902Z,20.00
2022-07-28T03:35:27.854Z,20.00
2022-07-28T03:36:27.802Z,24.00
2022-07-28T03:37:27.726Z,24.00
2022-07-28T03:38:27.683Z,28.00
2022-07-28T03:39:27.628Z,32.00
2022-07-28T03:40:27.585Z,36.00
2022-07-28T03:41:27.512Z,36.00
2022-07-28T03:42:27.491Z,40.00
2022-07-28T03:43:27.408Z,44.00
2022-07-28T03:44:27.834Z,44.00
2022-07-28T03:45:27.327Z,52.00
2022-07-28T03:46:27.276Z,52.00
2022-07-28T03:47:27.204Z,56.00
2022-07-28T03:48:27.162Z,56.00
2022-07-28T03:49:27.090Z,56.00
2022-07-28T03:50:27.060Z,60.00
2022-07-28T03:51:26.988Z,64.00
2022-07-28T03:52:26.940Z,68.00
2022-07-28T03:53:26.895Z,68.00
2022-07-28T03:54:26.831Z,68.00
2022-07-28T03:55:26.791Z,72.00
2022-07-28T03:56:26.732Z,72.00
2022-07-28T03:57:26.697Z,72.00
2022-07-28T03:58:28.892Z,80.00
2022-07-28T03:59:26.570Z,84.00
2022-07-28T04:00:26.518Z,88.00
2022-07-28T04:01:26.513Z,96.00
2022-07-28T04:02:26.515Z,104.00
2022-07-28T04:03:42.668Z,116.00
2022-07-28T04:04:26.311Z,124.00
2022-07-28T04:05:26.256Z,132.00
2022-07-28T04:06:26.206Z,144.00
2022-07-28T04:07:26.161Z,152.00
2022-07-28T04:08:26.114Z,164.00
2022-07-28T04:09:26.045Z,176.00
2022-07-28T04:10:25.989Z,188.00
2022-07-28T04:11:25.936Z,200.00
2022-07-28T04:12:25.881Z,216.00
2022-07-28T04:13:25.838Z,228.00
2022-07-28T04:14:26.009Z,244.00
2022-07-28T04:15:25.723Z,260.00
2022-07-28T04:16:25.709Z,280.00
2022-07-28T04:17:25.613Z,296.00
2022-07-28T04:18:25.583Z,312.00
2022-07-28T04:19:25.509Z,324.00
2022-07-28T04:20:25.458Z,340.00
2022-07-28T04:21:25.404Z,348.00
2022-07-28T04:22:25.353Z,356.00
2022-07-28T04:23:25.333Z,368.00
2022-07-28T04:24:25.251Z,384.00
2022-07-28T04:25:25.202Z,404.00
2022-07-28T04:26:25.141Z,428.00
2022-07-28T04:27:25.105Z,448.00
2022-07-28T04:28:25.055Z,464.00
2022-07-28T04:29:27.322Z,472.00
2022-07-28T04:30:25.090Z,468.00
2022-07-28T04:31:24.958Z,468.00
2022-07-28T04:32:24.828Z,476.00
2022-07-28T04:33:24.789Z,484.00
2022-07-28T04:34:24.721Z,496.00
2022-07-28T04:35:24.671Z,508.00
2022-07-28T04:36:24.610Z,520.00
2022-07-28T04:37:24.594Z,536.00
2022-07-28T04:38:24.511Z,556.00
2022-07-28T04:39:24.461Z,576.00
2022-07-28T04:40:24.408Z,592.00
2022-07-28T04:41:24.345Z,608.00
2022-07-28T04:42:24.405Z,616.00
2022-07-28T04:43:24.261Z,620.00
2022-07-28T04:44:24.215Z,632.00
2022-07-28T04:45:24.136Z,648.00
2022-07-28T04:46:24.174Z,668.00
2022-07-28T04:47:24.262Z,684.00
2022-07-28T04:48:23.996Z,708.00
2022-07-28T04:49:23.980Z,744.00
2022-07-28T04:50:23.878Z,780.00
2022-07-28T04:51:23.844Z,824.00
2022-07-28T04:52:23.781Z,876.00
2022-07-28T04:53:23.718Z,920.00
2022-07-28T04:54:26.694Z,976.00
2022-07-28T04:55:23.617Z,1024.00
2022-07-28T04:56:23.577Z,1044.00
2022-07-28T04:57:23.504Z,1052.00
2022-07-28T04:58:23.524Z,1064.00
2022-07-28T04:59:23.401Z,1080.00
2022-07-28T05:00:23.347Z,1088.00
2022-07-28T05:01:23.458Z,1100.00
2022-07-28T05:02:23.247Z,1132.00
2022-07-28T05:03:23.202Z,1176.00
2022-07-28T05:04:23.164Z,1220.00
2022-07-28T05:05:23.101Z,1272.00
2022-07-28T05:06:23.037Z,1332.00
2022-07-28T05:07:22.988Z,1400.00
2022-07-28T05:08:26.482Z,1472.00
2022-07-28T05:09:22.874Z,1532.00
2022-07-28T05:10:22.841Z,1560.00
2022-07-28T05:11:22.777Z,1612.00
2022-07-28T05:12:22.723Z,1692.00
2022-07-28T05:13:22.694Z,1720.00
2022-07-28T05:15:55.202Z,1672.00
2022-07-28T05:16:55.216Z,1680.00
2022-07-28T05:17:55.088Z,1736.00
2022-07-28T05:18:55.064Z,1772.00
2022-07-28T05:19:55.046Z,1792.00
2022-07-28T05:20:54.937Z,1840.00
2022-07-28T05:21:54.869Z,1864.00
2022-07-28T05:22:54.841Z,1856.00
2022-07-28T05:23:54.771Z,1856.00
2022-07-28T05:24:54.715Z,1836.00
2022-07-28T05:25:54.664Z,1812.00
2022-07-28T05:26:54.612Z,1804.00
2022-07-28T05:27:54.822Z,1796.00
2022-07-28T05:28:54.506Z,1796.00
2022-07-28T05:29:54.458Z,1804.00
2022-07-28T05:30:54.402Z,1856.00
2022-07-28T05:31:54.400Z,1896.00
2022-07-28T05:32:54.303Z,1944.00
2022-07-28T05:33:54.257Z,1972.00
2022-07-28T05:34:54.193Z,2056.00
2022-07-28T05:35:54.140Z,2072.00
2022-07-28T05:36:54.105Z,2116.00
2022-07-28T05:37:54.038Z,2148.00
2022-07-28T05:38:53.988Z,2172.00
2022-07-28T05:39:53.935Z,2108.00
2022-07-28T05:40:53.883Z,2132.00
2022-07-28T05:41:53.830Z,2180.00
2022-07-28T05:42:53.793Z,2172.00
2022-07-28T05:43:53.728Z,2132.00
2022-07-28T05:44:53.678Z,2180.00
2022-07-28T05:45:53.682Z,2256.00
2022-07-28T05:46:53.572Z,2268.00
2022-07-28T05:47:53.521Z,2288.00
2022-07-28T05:48:53.535Z,2344.00
2022-07-28T05:49:53.416Z,2404.00
2022-07-28T05:50:53.382Z,2504.00
2022-07-28T05:51:53.316Z,2612.00
2022-07-28T05:52:53.277Z,2660.00
2022-07-28T05:53:53.207Z,2648.00
2022-07-28T05:54:53.159Z,2608.00
2022-07-28T05:56:01.227Z,2664.00
2022-07-28T05:56:53.069Z,2728.00
2022-07-28T05:57:53.003Z,2732.00
2022-07-28T05:58:52.952Z,2740.00
2022-07-28T05:59:52.900Z,2764.00
2022-07-28T06:00:52.895Z,2840.00
2022-07-28T06:01:52.821Z,2924.00
2022-07-28T06:02:52.757Z,2984.00
2022-07-28T06:04:10.096Z,3116.00
2022-07-28T06:04:52.652Z,3208.00
2022-07-28T06:05:59.222Z,3212.00
2022-07-28T06:06:52.538Z,3316.00
2022-07-28T06:07:52.512Z,3424.00
2022-07-28T06:08:52.439Z,3408.00
2022-07-28T06:09:52.384Z,3432.00
2022-07-28T06:10:52.335Z,3460.00
2022-07-28T06:11:52.282Z,3540.00
2022-07-28T06:12:52.246Z,3544.00
2022-07-28T06:13:52.209Z,3528.00
2022-07-28T06:14:52.144Z,3576.00
2022-07-28T06:15:52.093Z,3620.00
2022-07-28T06:16:52.133Z,3584.00
2022-07-28T06:17:51.975Z,3604.00
2022-07-28T06:18:51.922Z,3592.00
2022-07-28T06:19:51.871Z,3596.00
2022-07-28T06:20:51.834Z,3548.00
2022-07-28T06:21:51.769Z,3528.00
2022-07-28T06:22:51.720Z,3524.00
2022-07-28T06:23:51.683Z,3464.00
2022-07-28T06:24:51.617Z,3540.00
2022-07-28T06:25:51.566Z,3516.00
2022-07-28T06:26:51.515Z,3528.00
2022-07-28T06:27:51.465Z,3508.00
2022-07-28T06:28:51.426Z,3492.00
2022-07-28T06:29:51.364Z,3492.00
2022-07-28T06:30:51.311Z,3500.00
2022-07-28T06:31:51.355Z,3560.00
2022-07-28T06:32:51.210Z,3624.00
2022-07-28T06:33:51.159Z,3716.00
2022-07-28T06:34:51.108Z,3712.00
2022-07-28T06:35:51.658Z,3888.00
2022-07-28T06:36:51.021Z,3884.00
2022-07-28T06:37:50.959Z,3880.00
2022-07-28T06:38:50.904Z,3872.00
2022-07-28T06:39:50.852Z,3796.00
2022-07-28T06:40:50.815Z,3796.00
2022-07-28T06:41:50.756Z,3676.00
2022-07-28T06:42:50.701Z,3504.00
2022-07-28T06:43:50.652Z,3428.00
2022-07-28T06:44:58.992Z,3256.00
2022-07-28T06:45:50.566Z,3176.00
2022-07-28T06:46:50.587Z,3024.00
2022-07-28T06:47:50.454Z,2920.00
2022-07-28T06:48:50.478Z,2776.00
2022-07-28T06:49:50.348Z,2784.00
2022-07-28T06:50:50.294Z,2732.00
2022-07-28T06:51:50.253Z,2728.00
2022-07-28T06:52:50.194Z,2672.00
2022-07-28T06:53:50.159Z,2688.00
2022-07-28T06:54:52.284Z,2676.00
2022-07-28T06:55:50.187Z,2652.00
2022-07-28T06:56:50.007Z,2620.00
2022-07-28T06:57:49.940Z,2624.00
2022-07-28T06:58:49.890Z,2620.00
2022-07-28T06:59:49.842Z,2624.00
2022-07-28T07:00:49.947Z,2628.00
2022-07-28T07:01:49.738Z,2628.00
2022-07-28T07:02:49.694Z,2620.00
2022-07-28T07:03:49.674Z,2624.00
2022-07-28T07:04:49.590Z,2620.00
2022-07-28T07:05:51.593Z,2624.00
2022-07-28T07:06:49.486Z,2628.00
2022-07-28T07:07:49.436Z,2632.00
2022-07-28T07:08:49.402Z,2656.00
2022-07-28T07:09:49.345Z,2680.00
2022-07-28T07:10:49.282Z,2696.00
2022-07-28T07:11:49.233Z,2708.00
2022-07-28T07:12:49.182Z,2716.00
2022-07-28T07:13:49.147Z,2720.00
2022-07-28T07:14:49.077Z,2732.00
2022-07-28T07:15:49.108Z,2756.00
2022-07-28T07:16:48.994Z,2772.00
2022-07-28T07:17:48.929Z,2788.00
2022-07-28T07:18:48.892Z,2808.00
2022-07-28T07:19:48.830Z,2824.00
2022-07-28T07:20:48.785Z,2836.00
2022-07-28T07:21:48.732Z,2844.00
2022-07-28T07:22:48.677Z,2860.00
2022-07-28T07:23:48.646Z,2876.00
2022-07-28T07:24:50.494Z,2896.00
2022-07-28T07:25:48.524Z,2912.00
2022-07-28T07:26:48.476Z,2940.00
2022-07-28T07:27:48.438Z,2964.00
2022-07-28T07:28:48.377Z,2988.00
2022-07-28T07:29:48.323Z,3012.00
2022-07-28T07:30:48.287Z,3040.00
2022-07-28T07:31:48.251Z,3048.00
2022-07-28T07:32:48.171Z,3064.00
2022-07-28T07:33:48.127Z,3068.00
2022-07-28T07:34:48.087Z,3112.00
2022-07-28T07:35:48.021Z,3148.00
2022-07-28T07:36:47.974Z,3184.00
2022-07-28T07:37:47.922Z,3192.00
2022-07-28T07:38:47.870Z,3224.00
2022-07-28T07:39:47.822Z,3256.00
2022-07-28T07:40:47.785Z,3284.00
2022-07-28T07:41:47.750Z,3300.00
2022-07-28T07:42:47.678Z,3344.00
2022-07-28T07:43:48.007Z,3376.00
2022-07-28T07:44:50.261Z,3396.00
2022-07-28T07:45:47.521Z,3448.00
2022-07-28T07:46:47.519Z,3472.00
2022-07-28T07:47:47.422Z,3476.00
2022-07-28T07:48:47.409Z,3500.00
2022-07-28T07:49:47.345Z,3488.00
2022-07-28T07:50:51.816Z,3568.00
2022-07-28T07:51:47.218Z,3616.00
2022-07-28T07:52:47.168Z,3668.00
2022-07-28T07:53:47.118Z,3692.00
2022-07-28T07:54:47.086Z,3696.00
2022-07-28T07:55:47.023Z,3692.00
2022-07-28T07:56:46.967Z,3712.00
2022-07-28T07:57:46.917Z,3692.00
2022-07-28T07:58:47.822Z,3696.00
2022-07-28T07:59:46.817Z,3700.00
2022-07-28T08:00:46.783Z,3668.00
2022-07-28T08:01:46.763Z,3748.00
2022-07-28T08:02:46.668Z,3764.00
2022-07-28T08:03:50.046Z,3800.00
2022-07-28T08:04:46.605Z,3824.00
2022-07-28T08:05:46.545Z,3832.00
2022-07-28T08:06:46.470Z,3836.00
2022-07-28T08:07:46.434Z,3852.00
2022-07-28T08:08:48.488Z,3860.00
2022-07-28T08:09:46.321Z,3804.00
2022-07-28T08:10:46.271Z,3800.00
2022-07-28T08:11:46.223Z,3824.00
2022-07-28T08:12:46.188Z,3820.00
2022-07-28T08:13:46.138Z,3800.00
2022-07-28T08:14:47.902Z,3792.00
2022-07-28T08:15:46.049Z,3788.00
2022-07-28T08:16:45.992Z,3876.00
2022-07-28T08:17:45.929Z,3900.00
2022-07-28T08:18:45.876Z,3900.00
2022-07-28T08:19:45.825Z,3952.00
2022-07-28T08:20:45.781Z,3972.00
2022-07-28T08:21:45.746Z,3988.00
2022-07-28T08:22:45.680Z,3984.00
2022-07-28T08:23:45.637Z,4016.00
2022-07-28T08:24:45.582Z,4060.00
2022-07-28T08:25:45.549Z,4112.00
2022-07-28T08:26:45.485Z,4156.00
2022-07-28T08:27:45.473Z,4200.00
2022-07-28T08:28:45.405Z,4244.00
2022-07-28T08:29:45.338Z,4276.00
2022-07-28T08:30:45.288Z,4316.00
2022-07-28T08:31:45.292Z,4352.00
2022-07-28T08:32:45.204Z,4376.00
2022-07-28T08:33:54.271Z,4404.00
2022-07-28T08:34:45.099Z,4508.00
2022-07-28T08:35:45.045Z,4612.00
2022-07-28T08:36:44.999Z,4696.00
2022-07-28T08:37:44.987Z,4776.00
2022-07-28T08:38:44.900Z,4884.00
2022-07-28T08:39:44.859Z,4952.00
2022-07-28T08:40:44.807Z,4928.00
2022-07-28T08:41:44.760Z,5016.00
2022-07-28T08:42:44.723Z,5068.00
2022-07-28T08:43:44.666Z,5076.00
2022-07-28T08:44:44.612Z,5020.00
2022-07-28T08:45:44.567Z,4972.00
2022-07-28T08:46:44.586Z,5080.00
2022-07-28T08:48:07.326Z,5052.00
2022-07-28T08:48:44.482Z,5112.00
2022-07-28T08:49:44.373Z,5016.00
2022-07-28T08:50:44.343Z,5100.00
2022-07-28T08:51:44.282Z,5212.00
2022-07-28T08:52:44.246Z,5284.00
2022-07-28T08:53:44.187Z,5360.00
2022-07-28T08:54:44.138Z,5236.00
2022-07-28T08:55:44.092Z,5260.00
2022-07-28T08:56:48.128Z,5068.00
2022-07-28T08:57:44.013Z,5112.00
2022-07-28T08:58:43.954Z,5156.00
2022-07-28T08:59:43.905Z,5188.00
2022-07-28T09:00:43.857Z,5268.00
2022-07-28T09:01:43.911Z,5100.00
2022-07-28T09:02:43.849Z,5240.00
2022-07-28T09:03:43.902Z,5240.00
2022-07-28T09:04:43.670Z,5340.00
2022-07-28T09:05:43.622Z,5404.00
2022-07-28T09:06:43.577Z,5452.00
2022-07-28T09:07:43.542Z,5436.00
2022-07-28T09:08:43.542Z,5504.00
2022-07-28T09:09:43.439Z,5508.00
2022-07-28T09:10:43.393Z,5544.00
2022-07-28T09:11:43.358Z,5504.00
2022-07-28T09:12:43.299Z,5468.00
2022-07-28T09:13:43.265Z,5476.00
2022-07-28T09:14:43.203Z,5496.00
2022-07-28T09:15:43.190Z,5572.00
2022-07-28T09:16:43.132Z,5608.00
2022-07-28T09:17:43.103Z,5672.00
2022-07-28T09:18:43.019Z,5700.00
2022-07-28T09:19:42.978Z,5708.00
2022-07-28T09:20:42.968Z,5624.00
2022-07-28T09:21:42.899Z,5692.00
2022-07-28T09:22:42.850Z,5680.00
2022-07-28T09:23:44.533Z,5644.00
2022-07-28T09:24:42.745Z,5700.00
2022-07-28T09:25:42.698Z,5692.00
2022-07-28T09:26:42.652Z,5672.00
2022-07-28T09:27:42.622Z,5612.00
2022-07-28T09:28:42.564Z,5620.00
2022-07-28T09:29:42.518Z,5648.00
2022-07-28T09:30:54.327Z,5756.00
2022-07-28T09:31:42.487Z,5740.00
2022-07-28T09:32:42.406Z,5824.00
2022-07-28T09:33:43.944Z,5808.00
2022-07-28T09:34:42.291Z,5672.00
2022-07-28T09:35:42.245Z,5624.00
2022-07-28T09:36:42.207Z,4488.00
2022-07-28T09:37:42.164Z,4420.00
2022-07-28T09:38:42.126Z,5120.00
2022-07-28T09:39:42.070Z,5312.00
2022-07-28T09:40:42.020Z,5796.00
2022-07-28T09:41:41.979Z,5908.00
2022-07-28T09:42:41.936Z,5924.00
2022-07-28T09:43:41.914Z,5968.00
2022-07-28T09:44:50.752Z,6028.00
2022-07-28T09:45:41.801Z,6040.00
2022-07-28T09:46:41.969Z,6104.00
2022-07-28T09:47:41.936Z,6092.00
2022-07-28T09:48:42.001Z,6084.00
2022-07-28T09:49:41.685Z,6028.00
2022-07-28T09:50:41.583Z,6164.00
2022-07-28T09:51:41.538Z,6232.00
2022-07-28T09:52:41.494Z,6220.00
2022-07-28T09:53:41.461Z,6132.00
2022-07-28T09:54:41.585Z,6088.00
2022-07-28T09:55:41.377Z,6108.00
2022-07-28T09:56:41.322Z,6156.00
2022-07-28T09:57:41.597Z,6236.00
2022-07-28T09:58:41.254Z,6144.00
2022-07-28T09:59:41.212Z,6020.00
2022-07-28T10:00:41.151Z,5804.00
2022-07-28T10:01:41.152Z,5808.00
2022-07-28T10:02:41.145Z,5528.00
2022-07-28T10:03:41.030Z,5424.00
2022-07-28T10:04:41.009Z,5376.00
2022-07-28T10:05:40.957Z,5444.00
2022-07-28T10:06:40.929Z,5512.00
2022-07-28T10:07:40.855Z,4240.00
2022-07-28T10:08:42.023Z,4400.00
2022-07-28T10:09:40.768Z,5480.00
2022-07-28T10:10:40.733Z,4400.00
2022-07-28T10:11:41.819Z,4340.00
2022-07-28T10:12:40.643Z,4428.00
2022-07-28T10:13:40.598Z,4784.00
2022-07-28T10:14:40.569Z,5952.00
2022-07-28T10:15:48.220Z,5908.00
2022-07-28T10:16:40.504Z,5824.00
2022-07-28T10:17:40.436Z,5844.00
2022-07-28T10:18:40.401Z,5700.00
2022-07-28T10:19:40.342Z,5656.00
2022-07-28T10:20:40.304Z,5540.00
2022-07-28T10:21:40.257Z,5504.00
2022-07-28T10:22:43.237Z,5428.00
2022-07-28T10:23:40.194Z,5544.00
2022-07-28T10:24:40.131Z,5452.00
2022-07-28T10:25:40.097Z,5304.00
2022-07-28T10:26:40.106Z,4048.00
2022-07-28T10:27:40.005Z,3908.00
2022-07-28T10:28:42.356Z,3936.00
2022-07-28T10:29:39.917Z,4012.00
2022-07-28T10:30:39.898Z,4540.00
2022-07-28T10:31:39.835Z,4144.00
2022-07-28T10:32:39.973Z,4276.00
2022-07-28T10:33:40.383Z,5100.00
2022-07-28T10:34:39.706Z,4836.00
2022-07-28T10:35:54.370Z,5672.00
2022-07-28T10:36:39.624Z,5584.00
2022-07-28T10:37:39.579Z,5592.00
2022-07-28T10:38:39.551Z,5740.00
2022-07-28T10:39:39.502Z,5740.00
2022-07-28T10:40:39.453Z,5704.00
2022-07-28T10:41:39.420Z,5536.00
2022-07-28T10:42:39.384Z,5820.00
2022-07-28T10:43:42.893Z,5480.00
2022-07-28T10:44:39.286Z,5624.00
2022-07-28T10:46:03.344Z,5864.00
2022-07-28T10:46:39.420Z,5964.00
2022-07-28T10:47:39.156Z,5192.00
2022-07-28T10:48:39.928Z,4528.00
2022-07-28T10:49:39.068Z,4488.00
2022-07-28T10:50:39.034Z,5556.00
2022-07-28T10:51:59.833Z,4440.00
2022-07-28T10:52:48.252Z,5120.00
2022-07-28T10:53:39.507Z,5536.00
2022-07-28T10:54:41.008Z,5388.00
2022-07-28T10:55:38.828Z,5268.00
2022-07-28T10:56:38.800Z,5284.00
2022-07-28T10:57:38.744Z,4856.00
2022-07-28T10:58:38.686Z,5120.00
2022-07-28T10:59:38.647Z,5136.00
2022-07-28T11:00:54.944Z,5136.00
2022-07-28T11:01:52.119Z,5088.00
2022-07-28T11:02:38.712Z,5160.00
2022-07-28T11:03:38.587Z,5264.00
2022-07-28T11:04:38.452Z,5436.00
2022-07-28T11:05:38.396Z,5324.00
2022-07-28T11:06:38.370Z,5028.00
2022-07-28T11:07:38.326Z,5340.00
2022-07-28T11:08:38.281Z,5304.00
2022-07-28T11:09:38.231Z,5348.00
2022-07-28T11:10:38.189Z,5316.00
2022-07-28T11:11:38.161Z,5320.00
2022-07-28T11:12:38.123Z,5364.00
2022-07-28T11:13:41.055Z,5712.00
2022-07-28T11:14:39.419Z,5032.00
2022-07-28T11:15:47.434Z,4624.00
2022-07-28T11:16:38.010Z,5092.00
2022-07-28T11:17:37.989Z,5364.00
2022-07-28T11:18:37.893Z,5768.00
2022-07-28T11:19:42.476Z,5964.00
2022-07-28T11:20:37.836Z,6128.00
2022-07-28T11:21:39.685Z,6056.00
2022-07-28T11:22:37.725Z,5864.00
2022-07-28T11:23:37.692Z,5416.00
2022-07-28T11:24:37.625Z,5396.00
2022-07-28T11:25:37.582Z,5236.00
2022-07-28T11:26:37.601Z,4988.00
2022-07-28T11:27:37.510Z,4836.00
2022-07-28T11:28:37.501Z,3632.00
2022-07-28T11:29:37.435Z,3684.00
2022-07-28T11:30:37.456Z,3972.00
2022-07-28T11:31:37.388Z,4668.00
2022-07-28T11:32:44.112Z,4116.00
2022-07-28T11:33:37.291Z,3784.00
2022-07-28T11:34:37.249Z,4404.00
2022-07-28T11:35:37.196Z,4872.00
2022-07-28T11:36:37.156Z,4676.00
2022-07-28T11:37:37.146Z,5112.00
2022-07-28T11:38:37.092Z,4864.00
2022-07-28T11:39:42.742Z,4408.00
2022-07-28T11:40:37.004Z,4640.00
2022-07-28T11:41:36.939Z,4504.00
2022-07-28T11:42:36.898Z,4724.00
2022-07-28T11:43:39.111Z,4380.00
2022-07-28T11:44:36.843Z,4844.00
2022-07-28T11:45:38.918Z,4388.00
2022-07-28T11:46:37.659Z,4664.00
2022-07-28T11:47:36.747Z,5232.00
2022-07-28T11:48:36.731Z,5264.00
2022-07-28T11:49:36.655Z,5224.00
2022-07-28T11:50:36.643Z,5360.00
2022-07-28T11:51:51.525Z,5388.00
2022-07-28T11:52:36.532Z,5132.00
2022-07-28T11:53:36.695Z,5488.00
2022-07-28T11:54:36.433Z,5432.00
2022-07-28T11:55:55.510Z,5572.00
2022-07-28T11:56:36.385Z,5464.00
2022-07-28T11:57:36.287Z,5628.00
2022-07-28T11:58:36.286Z,5524.00
2022-07-28T11:59:37.191Z,5600.00
2022-07-28T12:00:36.209Z,5752.00
2022-07-28T12:01:38.368Z,5600.00
2022-07-28T12:02:36.166Z,5508.00
2022-07-28T12:03:49.312Z,5284.00
2022-07-28T12:04:36.081Z,5196.00
2022-07-28T12:05:41.553Z,5012.00
2022-07-28T12:06:35.969Z,4848.00
2022-07-28T12:07:35.926Z,5236.00
2022-07-28T12:08:35.848Z,5204.00
2022-07-28T12:09:42.351Z,5020.00
2022-07-28T12:11:35.730Z,4752.00
2022-07-28T12:12:35.698Z,3800.00
2022-07-28T12:13:35.680Z,3264.00
2022-07-28T12:14:39.060Z,3188.00
2022-07-28T12:15:35.576Z,5052.00
2022-07-28T12:16:35.550Z,4316.00
2022-07-28T12:17:35.503Z,4936.00
2022-07-28T12:18:35.449Z,5056.00
2022-07-28T12:19:35.399Z,4796.00
2022-07-28T12:20:35.357Z,5284.00
2022-07-28T12:21:35.331Z,5008.00
2022-07-28T12:22:35.284Z,5504.00
2022-07-28T12:23:39.379Z,5268.00
2022-07-28T12:24:44.686Z,5328.00
2022-07-28T12:25:35.142Z,4324.00
2022-07-28T12:26:40.738Z,4724.00
2022-07-28T12:27:35.061Z,5000.00
2022-07-28T12:28:35.066Z,5264.00
2022-07-28T12:29:36.110Z,5000.00
2022-07-28T12:30:34.952Z,5192.00